createdAt,value
2019-05-12T00:01:13.572Z,9.36
2019-05-12T00:03:44.516Z,9.33
2019-05-12T00:06:17.561Z,9.41
2019-05-12T00:08:48.755Z,9.47
2019-05-12T00:11:19.537Z,9.48
2019-05-12T00:13:50.516Z,9.57
2019-05-12T00:16:21.589Z,9.32
2019-05-12T00:18:52.411Z,9.38
2019-05-12T00:21:23.796Z,9.38
2019-05-12T00:24:12.757Z,9.29
2019-05-12T00:26:43.917Z,9.19
2019-05-12T00:29:14.878Z,9.19
2019-05-12T00:31:47.771Z,9.23
2019-05-12T00:34:18.632Z,9.29
2019-05-12T00:36:49.695Z,9.34
2019-05-12T00:39:20.756Z,9.46
2019-05-12T00:41:51.713Z,9.43
2019-05-12T00:44:22.572Z,9.21
2019-05-12T00:46:53.637Z,9.15
2019-05-12T00:49:24.592Z,9.02
2019-05-12T00:51:55.631Z,9.01
2019-05-12T00:54:28.461Z,8.99
2019-05-12T00:56:58.896Z,9.02
2019-05-12T00:59:29.840Z,9.01
2019-05-12T01:02:00.795Z,9.05
2019-05-12T01:04:31.670Z,9.06
2019-05-12T01:07:02.733Z,8.97
2019-05-12T01:09:33.596Z,8.93
2019-05-12T01:12:04.783Z,8.88
2019-05-12T01:14:35.400Z,8.92
2019-05-12T01:17:08.435Z,8.98
2019-05-12T01:19:40.472Z,9.02
2019-05-12T01:22:11.038Z,8.98
2019-05-12T01:24:41.995Z,9.04
2019-05-12T01:27:13.037Z,9.05
2019-05-12T01:29:44.115Z,9.02
2019-05-12T01:32:25.913Z,9.10
2019-05-12T01:34:57.786Z,9.18
2019-05-12T01:37:28.735Z,9.07
2019-05-12T01:40:00.207Z,8.93
2019-05-12T01:42:30.857Z,8.89
2019-05-12T01:45:01.822Z,8.89
2019-05-12T01:47:33.001Z,8.92
2019-05-12T01:50:04.184Z,8.93
2019-05-12T01:52:34.821Z,8.99
2019-05-12T01:55:08.142Z,9.01
2019-05-12T01:57:39.080Z,8.93
2019-05-12T02:00:13.801Z,8.97
2019-05-12T02:02:44.454Z,9.05
2019-05-12T02:05:15.330Z,8.97
2019-05-12T02:07:50.665Z,8.99
2019-05-12T02:10:23.455Z,9.09
2019-05-12T02:12:54.136Z,9.09
2019-05-12T02:15:25.093Z,9.18
2019-05-12T02:17:55.728Z,9.02
2019-05-12T02:20:28.730Z,8.97
2019-05-12T02:22:59.100Z,9.06
2019-05-12T02:25:30.157Z,9.13
2019-05-12T02:28:01.101Z,9.25
2019-05-12T02:30:32.221Z,9.30
2019-05-12T02:33:05.183Z,9.42
2019-05-12T02:35:35.823Z,9.58
2019-05-12T02:38:07.101Z,9.49
2019-05-12T02:40:37.948Z,9.54
2019-05-12T02:43:09.012Z,9.62
2019-05-12T02:45:39.972Z,9.75
2019-05-12T02:48:14.144Z,9.85
2019-05-12T02:50:45.211Z,9.94
2019-05-12T02:53:16.121Z,9.91
2019-05-12T02:55:48.290Z,9.94
2019-05-12T02:58:21.602Z,9.99
2019-05-12T03:00:54.802Z,9.94
2019-05-12T03:03:28.611Z,9.99
2019-05-12T03:06:00.715Z,10.05
2019-05-12T03:08:34.818Z,10.17
2019-05-12T03:11:06.720Z,10.29
2019-05-12T03:13:37.795Z,10.28
2019-05-12T03:16:08.859Z,10.34
2019-05-12T03:18:39.815Z,10.43
2019-05-12T03:21:10.884Z,10.51
2019-05-12T03:23:44.487Z,10.64
2019-05-12T03:26:15.449Z,10.83
2019-05-12T03:28:46.311Z,10.98
2019-05-12T03:31:23.626Z,10.97
2019-05-12T03:33:54.113Z,11.08
2019-05-12T03:36:32.492Z,11.03
2019-05-12T03:38:55.393Z,11.12
2019-05-12T03:41:26.522Z,11.25
2019-05-12T03:43:59.007Z,11.27
2019-05-12T03:46:29.751Z,11.26
2019-05-12T03:49:00.728Z,11.29
2019-05-12T03:51:34.743Z,11.42
2019-05-12T03:54:05.148Z,11.57
2019-05-12T03:56:36.054Z,11.72
2019-05-12T03:59:08.137Z,11.91
2019-05-12T04:01:39.403Z,11.89
2019-05-12T04:04:10.485Z,11.98
2019-05-12T04:06:45.013Z,11.96
2019-05-12T04:09:15.471Z,12.14
2019-05-12T04:11:46.100Z,12.31
2019-05-12T04:14:17.058Z,12.48
2019-05-12T04:16:47.923Z,12.58
2019-05-12T04:19:21.122Z,12.67
2019-05-12T04:21:54.707Z,12.74
2019-05-12T04:24:25.199Z,12.65
2019-05-12T04:26:56.340Z,12.80
2019-05-12T04:29:27.616Z,12.79
2019-05-12T04:31:58.687Z,13.01
2019-05-12T04:34:29.637Z,13.31
2019-05-12T04:37:04.561Z,13.46
2019-05-12T04:39:35.217Z,13.28
2019-05-12T04:42:07.627Z,13.74
2019-05-12T04:44:38.672Z,13.68
2019-05-12T04:47:09.545Z,13.82
2019-05-12T04:49:40.586Z,14.40
2019-05-12T04:52:11.558Z,14.87
2019-05-12T04:54:44.455Z,14.87
2019-05-12T04:57:15.159Z,15.07
2019-05-12T04:59:47.185Z,15.18
2019-05-12T05:02:17.868Z,15.09
2019-05-12T05:04:48.704Z,15.17
2019-05-12T05:07:19.767Z,15.20
2019-05-12T05:09:50.732Z,15.42
2019-05-12T05:12:23.943Z,15.36
2019-05-12T05:14:54.803Z,15.56
2019-05-12T05:17:25.747Z,15.83
2019-05-12T05:19:56.703Z,15.77
2019-05-12T05:22:27.542Z,16.07
2019-05-12T05:24:58.620Z,16.04
2019-05-12T05:27:29.578Z,16.31
2019-05-12T05:30:00.443Z,16.43
2019-05-12T05:32:33.715Z,16.43
2019-05-12T05:35:07.428Z,16.58
2019-05-12T05:37:41.337Z,16.67
2019-05-12T05:40:09.993Z,16.85
2019-05-12T05:42:40.953Z,16.79
2019-05-12T05:45:19.576Z,16.91
2019-05-12T05:47:44.814Z,17.15
2019-05-12T05:50:18.402Z,17.05
2019-05-12T05:52:48.164Z,17.09
2019-05-12T05:55:20.316Z,17.45
2019-05-12T05:57:53.530Z,17.37
2019-05-12T06:00:26.362Z,17.62
2019-05-12T06:02:57.821Z,17.44
2019-05-12T06:05:30.820Z,17.53
2019-05-12T06:08:00.664Z,18.04
2019-05-12T06:10:36.259Z,18.32
2019-05-12T06:13:04.307Z,18.13
2019-05-12T06:15:40.426Z,18.49
2019-05-12T06:18:07.975Z,18.57
2019-05-12T06:20:38.843Z,18.62
2019-05-12T06:23:09.888Z,18.77
2019-05-12T06:25:47.476Z,18.83
2019-05-12T06:28:14.573Z,18.99
2019-05-12T06:30:49.446Z,18.81
2019-05-12T06:33:24.785Z,19.01
2019-05-12T06:35:49.779Z,19.07
2019-05-12T06:38:20.753Z,19.38
2019-05-12T06:40:51.506Z,19.70
2019-05-12T06:43:24.273Z,19.99
2019-05-12T06:45:54.755Z,19.55
2019-05-12T06:48:30.069Z,19.15
2019-05-12T06:50:57.797Z,19.53
2019-05-12T06:53:30.913Z,19.21
2019-05-12T06:56:00.921Z,19.89
2019-05-12T06:58:34.453Z,19.43
2019-05-12T07:01:10.960Z,19.43
2019-05-12T07:03:37.910Z,19.96
2019-05-12T07:06:09.258Z,20.06
2019-05-12T07:08:41.049Z,19.99
2019-05-12T07:11:14.304Z,19.81
2019-05-12T07:13:44.379Z,19.70
2019-05-12T07:16:23.143Z,20.07
2019-05-12T07:18:49.487Z,20.18
2019-05-12T07:21:24.017Z,20.72
2019-05-12T07:23:53.575Z,20.77
2019-05-12T07:26:24.700Z,20.77
2019-05-12T07:28:55.671Z,20.37
2019-05-12T07:31:26.836Z,20.31
2019-05-12T07:33:57.792Z,20.56
2019-05-12T07:36:33.226Z,20.08
2019-05-12T07:39:08.366Z,19.81
2019-05-12T07:41:42.268Z,19.86
2019-05-12T07:44:15.098Z,20.25
2019-05-12T07:46:49.438Z,20.65
2019-05-12T07:49:24.232Z,20.43
2019-05-12T07:51:50.644Z,20.55
2019-05-12T07:54:23.583Z,20.29
2019-05-12T07:56:54.402Z,20.33
2019-05-12T07:59:26.612Z,20.06
2019-05-12T08:01:58.496Z,20.16
2019-05-12T08:04:31.735Z,20.57
2019-05-12T08:07:03.731Z,21.02
2019-05-12T08:09:36.328Z,21.27
2019-05-12T08:12:09.613Z,21.50
2019-05-12T08:14:39.113Z,21.46
2019-05-12T08:17:11.932Z,21.33
2019-05-12T08:19:44.351Z,20.94
2019-05-12T08:22:19.009Z,20.64
2019-05-12T08:24:53.578Z,20.51
2019-05-12T08:27:26.160Z,20.93
2019-05-12T08:30:00.917Z,20.82
2019-05-12T08:32:31.341Z,21.11
2019-05-12T08:35:05.021Z,21.56
2019-05-12T08:37:35.604Z,21.09
2019-05-12T08:40:07.882Z,21.03
2019-05-12T08:42:38.465Z,21.34
2019-05-12T08:45:15.151Z,21.03
2019-05-12T08:47:44.055Z,20.99
2019-05-12T08:50:14.306Z,21.62
2019-05-12T08:52:45.252Z,21.16
2019-05-12T08:55:17.002Z,21.70
2019-05-12T08:57:49.733Z,21.81
2019-05-12T09:00:23.785Z,21.27
2019-05-12T09:02:54.622Z,20.83
2019-05-12T09:05:33.611Z,21.46
2019-05-12T09:07:58.796Z,21.90
2019-05-12T09:10:29.444Z,22.00
2019-05-12T09:13:00.404Z,21.98
2019-05-12T09:15:31.456Z,22.13
2019-05-12T09:18:04.883Z,22.52
2019-05-12T09:20:39.406Z,22.86
2019-05-12T09:23:10.678Z,22.24
2019-05-12T09:25:45.086Z,21.85
2019-05-12T09:28:14.208Z,21.80
2019-05-12T09:30:49.194Z,22.15
2019-05-12T09:33:21.558Z,22.20
2019-05-12T09:35:49.455Z,22.04
2019-05-12T09:38:23.129Z,22.11
2019-05-12T09:41:00.577Z,22.15
2019-05-12T09:43:25.192Z,22.30
2019-05-12T09:45:56.610Z,21.98
2019-05-12T09:48:29.054Z,21.92
2019-05-12T09:51:00.748Z,21.82
2019-05-12T09:53:34.104Z,22.21
2019-05-12T09:56:04.894Z,22.25
2019-05-12T09:58:36.574Z,21.92
2019-05-12T10:01:07.219Z,21.65
2019-05-12T10:03:40.003Z,21.47
2019-05-12T10:06:11.514Z,21.59
2019-05-12T10:08:43.439Z,22.01
2019-05-12T10:11:16.616Z,22.08
2019-05-12T10:13:47.227Z,22.34
2019-05-12T10:16:18.188Z,22.30
2019-05-12T10:18:51.774Z,22.58
2019-05-12T10:21:23.560Z,21.99
2019-05-12T10:24:00.093Z,21.32
2019-05-12T10:26:26.011Z,21.36
2019-05-12T10:28:58.434Z,21.34
2019-05-12T10:31:34.439Z,21.43
2019-05-12T10:34:20.157Z,21.77
2019-05-12T10:36:53.488Z,21.82
2019-05-12T10:39:24.671Z,21.57
2019-05-12T10:41:55.382Z,21.29
2019-05-12T10:44:29.922Z,21.07
2019-05-12T10:47:00.369Z,20.94
2019-05-12T10:49:33.596Z,20.83
2019-05-12T10:52:04.075Z,20.83
2019-05-12T10:54:34.983Z,20.85
2019-05-12T10:57:05.641Z,20.88
2019-05-12T10:59:38.933Z,20.98
2019-05-12T11:02:08.476Z,21.44
2019-05-12T11:04:41.265Z,22.25
2019-05-12T11:07:13.578Z,22.84
2019-05-12T11:09:44.314Z,22.97
2019-05-12T11:12:19.106Z,23.17
2019-05-12T11:14:48.055Z,23.08
2019-05-12T11:17:18.910Z,22.44
2019-05-12T11:19:51.510Z,22.78
2019-05-12T11:22:22.377Z,22.23
2019-05-12T11:24:55.717Z,22.33
2019-05-12T11:27:25.725Z,22.59
2019-05-12T11:29:56.787Z,22.58
2019-05-12T11:32:28.859Z,23.01
2019-05-12T11:35:00.443Z,23.47
2019-05-12T11:37:33.698Z,23.57
2019-05-12T11:40:04.507Z,23.01
2019-05-12T11:42:35.555Z,22.64
2019-05-12T11:45:07.633Z,22.44
2019-05-12T11:47:38.712Z,22.99
2019-05-12T11:50:10.219Z,23.33
2019-05-12T11:52:40.816Z,22.79
2019-05-12T11:55:13.493Z,22.67
2019-05-12T11:57:44.606Z,23.19
2019-05-12T12:00:17.406Z,23.84
2019-05-12T12:02:49.682Z,23.46
2019-05-12T12:05:20.740Z,23.64
2019-05-12T12:07:53.427Z,24.02
2019-05-12T12:10:24.070Z,24.04
2019-05-12T12:12:54.926Z,23.45
2019-05-12T12:15:30.151Z,23.48
2019-05-12T12:18:04.051Z,23.16
2019-05-12T12:20:33.535Z,22.46
2019-05-12T12:23:10.961Z,21.86
2019-05-12T12:25:36.728Z,21.79
2019-05-12T12:28:07.576Z,21.60
2019-05-12T12:30:38.608Z,21.47
2019-05-12T12:33:09.670Z,21.35
2019-05-12T12:35:40.610Z,21.32
2019-05-12T12:38:13.936Z,21.20
2019-05-12T12:40:44.302Z,21.18
2019-05-12T12:43:15.242Z,21.14
2019-05-12T12:45:50.482Z,21.05
2019-05-12T12:48:28.097Z,21.03
2019-05-12T12:50:53.848Z,20.95
2019-05-12T12:53:27.463Z,20.90
2019-05-12T12:55:58.795Z,20.94
2019-05-12T12:58:31.527Z,20.87
2019-05-12T13:01:03.701Z,20.88
2019-05-12T13:03:34.561Z,21.02
2019-05-12T13:06:05.527Z,20.69
2019-05-12T13:08:36.382Z,20.11
2019-05-12T13:11:07.323Z,20.05
2019-05-12T13:13:38.286Z,19.96
2019-05-12T13:16:09.139Z,19.67
2019-05-12T13:18:40.206Z,19.69
2019-05-12T13:21:11.057Z,19.67
2019-05-12T13:23:41.931Z,19.42
2019-05-12T13:26:13.472Z,19.44
2019-05-12T13:28:45.435Z,19.55
2019-05-12T13:31:16.865Z,19.42
2019-05-12T13:33:49.449Z,19.10
2019-05-12T13:36:20.200Z,18.85
2019-05-12T13:38:51.570Z,19.01
2019-05-12T13:41:22.219Z,19.13
2019-05-12T13:43:56.145Z,18.90
2019-05-12T13:46:25.346Z,18.90
2019-05-12T13:48:59.620Z,18.94
2019-05-12T13:51:28.606Z,18.85
2019-05-12T13:53:59.670Z,18.79
2019-05-12T13:56:33.589Z,18.87
2019-05-12T13:59:04.241Z,18.87
2019-05-12T14:01:40.265Z,19.04
2019-05-12T14:04:08.821Z,19.18
2019-05-12T14:06:39.864Z,19.30
2019-05-12T14:09:13.421Z,19.41
2019-05-12T14:11:44.553Z,19.57
2019-05-12T14:14:15.752Z,19.61
2019-05-12T14:16:56.977Z,19.33
2019-05-12T14:19:19.072Z,19.21
2019-05-12T14:21:50.338Z,19.21
2019-05-12T14:24:23.246Z,19.04
2019-05-12T14:26:53.555Z,18.68
2019-05-12T14:29:26.709Z,18.65
2019-05-12T14:32:02.443Z,18.59
2019-05-12T14:34:29.305Z,18.53
2019-05-12T14:37:09.130Z,18.45
2019-05-12T14:39:34.428Z,18.38
2019-05-12T14:42:05.366Z,18.15
2019-05-12T14:44:43.876Z,18.13
2019-05-12T14:47:08.801Z,18.11
2019-05-12T14:49:39.673Z,18.15
2019-05-12T14:52:10.623Z,18.19
2019-05-12T14:54:43.440Z,18.23
2019-05-12T14:57:13.959Z,18.21
2019-05-12T14:59:45.144Z,18.21
2019-05-12T15:02:19.479Z,18.16
2019-05-12T15:04:49.711Z,18.16
2019-05-12T15:07:20.883Z,18.04
2019-05-12T15:09:53.878Z,17.98
2019-05-12T15:12:25.055Z,18.02
2019-05-12T15:14:56.259Z,18.00
2019-05-12T15:17:27.376Z,17.84
2019-05-12T15:20:00.328Z,17.79
2019-05-12T15:22:33.042Z,17.77
2019-05-12T15:25:05.496Z,17.77
2019-05-12T15:27:44.348Z,17.68
2019-05-12T15:30:20.323Z,17.58
2019-05-12T15:32:41.921Z,17.57
2019-05-12T15:35:14.071Z,17.59
2019-05-12T15:37:45.066Z,17.62
2019-05-12T15:40:20.337Z,17.61
2019-05-12T15:42:55.091Z,17.67
2019-05-12T15:45:24.487Z,17.68
2019-05-12T15:47:55.328Z,17.61
2019-05-12T15:50:26.406Z,17.50
2019-05-12T15:52:57.367Z,17.44
2019-05-12T15:55:32.654Z,17.39
2019-05-12T15:58:05.532Z,17.31
2019-05-12T16:00:43.876Z,17.18
2019-05-12T16:03:28.588Z,17.12
2019-05-12T16:06:01.277Z,17.05
2019-05-12T16:08:31.850Z,16.94
2019-05-12T16:11:05.126Z,16.89
2019-05-12T16:13:35.715Z,16.82
2019-05-12T16:16:06.846Z,16.79
2019-05-12T16:18:40.554Z,16.78
2019-05-12T16:21:09.819Z,16.74
2019-05-12T16:23:40.759Z,16.71
2019-05-12T16:26:14.678Z,16.65
2019-05-12T16:28:44.417Z,16.58
2019-05-12T16:31:15.471Z,16.57
2019-05-12T16:33:46.328Z,16.54
2019-05-12T16:36:17.714Z,16.51
2019-05-12T16:38:50.161Z,16.51
2019-05-12T16:41:27.978Z,16.54
2019-05-12T16:43:53.797Z,16.53
2019-05-12T16:46:24.923Z,16.45
2019-05-12T16:48:57.070Z,16.28
2019-05-12T16:51:27.962Z,16.13
2019-05-12T16:53:58.922Z,16.09
2019-05-12T16:56:29.941Z,16.03
2019-05-12T16:59:00.822Z,15.97
2019-05-12T17:01:33.468Z,15.92
2019-05-12T17:04:04.507Z,15.86
2019-05-12T17:06:38.608Z,15.83
2019-05-12T17:09:08.765Z,15.81
2019-05-12T17:11:47.157Z,15.75
2019-05-12T17:14:11.912Z,15.73
2019-05-12T17:16:46.522Z,15.68
2019-05-12T17:19:15.570Z,15.60
2019-05-12T17:21:49.496Z,15.50
2019-05-12T17:24:19.014Z,15.45
2019-05-12T17:26:50.077Z,15.36
2019-05-12T17:29:21.032Z,15.24
2019-05-12T17:31:53.575Z,15.21
2019-05-12T17:34:25.898Z,15.16
2019-05-12T17:37:00.388Z,15.10
2019-05-12T17:39:34.213Z,15.05
2019-05-12T17:42:01.349Z,14.98
2019-05-12T17:44:36.617Z,14.91
2019-05-12T17:47:05.003Z,14.96
2019-05-12T17:49:38.969Z,14.85
2019-05-12T17:52:13.250Z,14.80
2019-05-12T17:54:40.539Z,14.62
2019-05-12T17:57:17.865Z,14.56
2019-05-12T17:59:44.769Z,14.55
2019-05-12T18:02:16.935Z,14.46
2019-05-12T18:04:49.919Z,14.37
2019-05-12T18:07:20.343Z,14.34
2019-05-12T18:09:56.816Z,14.31
2019-05-12T18:12:26.796Z,14.32
2019-05-12T18:14:56.063Z,14.24
2019-05-12T18:17:27.019Z,14.08
2019-05-12T18:20:00.844Z,14.02
2019-05-12T18:22:30.377Z,13.90
2019-05-12T18:25:04.135Z,13.90
2019-05-12T18:27:36.642Z,13.93
2019-05-12T18:30:07.470Z,13.94
2019-05-12T18:32:38.105Z,13.90
2019-05-12T18:35:09.150Z,13.82
2019-05-12T18:37:40.128Z,13.80
2019-05-12T18:40:11.597Z,13.73
2019-05-12T18:42:42.150Z,13.67
2019-05-12T18:45:17.737Z,13.63
2019-05-12T18:47:46.924Z,13.60
2019-05-12T18:50:20.763Z,13.59
2019-05-12T18:52:50.783Z,13.60
2019-05-12T18:55:23.590Z,13.73
2019-05-12T18:57:54.655Z,13.67
2019-05-12T19:00:26.504Z,13.59
2019-05-12T19:02:59.736Z,13.54
2019-05-12T19:05:30.818Z,13.52
2019-05-12T19:08:03.817Z,13.50
2019-05-12T19:10:38.590Z,13.45
2019-05-12T19:13:07.608Z,13.44
2019-05-12T19:15:38.597Z,13.38
2019-05-12T19:18:09.572Z,13.27
2019-05-12T19:20:40.633Z,13.19
2019-05-12T19:23:13.610Z,13.15
2019-05-12T19:25:43.985Z,13.14
2019-05-12T19:28:14.925Z,13.28
2019-05-12T19:30:46.184Z,13.26
2019-05-12T19:33:16.958Z,13.29
2019-05-12T19:35:50.437Z,13.31
2019-05-12T19:38:21.128Z,13.35
2019-05-12T19:40:58.759Z,13.34
2019-05-12T19:43:26.007Z,13.32
2019-05-12T19:46:03.115Z,13.32
2019-05-12T19:48:35.161Z,13.40
2019-05-12T19:51:17.868Z,13.52
2019-05-12T19:53:34.426Z,13.54
2019-05-12T19:56:05.438Z,13.55
2019-05-12T19:58:36.258Z,13.56
2019-05-12T20:01:07.116Z,13.51
2019-05-12T20:03:38.057Z,13.39
2019-05-12T20:06:09.540Z,13.45
2019-05-12T20:08:43.706Z,13.58
2019-05-12T20:11:14.718Z,13.83
2019-05-12T20:13:45.590Z,14.01
2019-05-12T20:16:21.828Z,14.08
2019-05-12T20:18:49.738Z,14.11
2019-05-12T20:21:25.906Z,14.16
2019-05-12T20:23:54.421Z,14.11
2019-05-12T20:26:25.187Z,14.09
2019-05-12T20:28:56.642Z,14.09
2019-05-12T20:31:27.733Z,14.11
2019-05-12T20:34:04.584Z,14.04
2019-05-12T20:36:33.520Z,14.06
2019-05-12T20:39:10.030Z,14.11
2019-05-12T20:41:38.608Z,14.12
2019-05-12T20:44:15.393Z,14.12
2019-05-12T20:46:43.245Z,14.13
2019-05-12T20:49:15.033Z,14.15
2019-05-12T20:51:48.190Z,14.08
2019-05-12T20:54:18.923Z,14.08
2019-05-12T20:56:53.049Z,14.09
2019-05-12T20:59:28.133Z,14.14
2019-05-12T21:01:57.221Z,14.14
2019-05-12T21:04:37.062Z,14.15
2019-05-12T21:07:00.343Z,14.16
2019-05-12T21:09:31.423Z,14.14
2019-05-12T21:12:02.263Z,14.11
2019-05-12T21:14:33.535Z,14.12
2019-05-12T21:17:09.352Z,14.11
2019-05-12T21:19:38.749Z,14.11
2019-05-12T21:22:09.183Z,14.10
2019-05-12T21:24:40.240Z,14.10
2019-05-12T21:27:18.264Z,14.15
2019-05-12T21:29:43.842Z,14.16
2019-05-12T21:32:16.913Z,14.22
2019-05-12T21:34:47.126Z,14.26
2019-05-12T21:37:18.203Z,14.35
2019-05-12T21:39:51.002Z,14.37
2019-05-12T21:42:24.961Z,14.35
2019-05-12T21:44:53.839Z,14.38
2019-05-12T21:47:24.797Z,14.35
2019-05-12T21:49:57.910Z,14.35
2019-05-12T21:52:34.940Z,14.32
2019-05-12T21:55:00.765Z,14.26
2019-05-12T21:57:34.385Z,14.28
2019-05-12T22:00:10.690Z,14.28
2019-05-12T22:02:38.509Z,14.17
2019-05-12T22:05:13.903Z,14.08
2019-05-12T22:07:42.178Z,14.08
2019-05-12T22:10:15.563Z,14.10
2019-05-12T22:12:46.550Z,14.05
2019-05-12T22:15:28.586Z,14.13
2019-05-12T22:18:00.537Z,14.10
2019-05-12T22:20:35.689Z,14.08
2019-05-12T22:23:11.563Z,14.10
2019-05-12T22:25:39.444Z,14.12
2019-05-12T22:28:10.591Z,14.08
2019-05-12T22:30:43.568Z,14.14
2019-05-12T22:33:14.035Z,14.23
2019-05-12T22:35:45.121Z,14.18
2019-05-12T22:38:20.847Z,14.18
2019-05-12T22:40:49.271Z,14.22
2019-05-12T22:43:23.153Z,14.21
2019-05-12T22:45:54.786Z,14.18
2019-05-12T22:48:29.619Z,14.16
2019-05-12T22:50:58.216Z,14.13
2019-05-12T22:53:30.243Z,14.12
2019-05-12T22:56:03.025Z,14.10
2019-05-12T22:58:33.975Z,14.07
2019-05-12T23:01:05.598Z,14.02
2019-05-12T23:03:36.643Z,13.99
2019-05-12T23:06:20.469Z,13.88
2019-05-12T23:08:45.157Z,13.84
2019-05-12T23:11:14.482Z,13.82
2019-05-12T23:13:45.653Z,13.75
2019-05-12T23:16:19.322Z,13.68
2019-05-12T23:18:49.102Z,13.67
2019-05-12T23:21:20.063Z,13.70
2019-05-12T23:23:57.105Z,13.69
2019-05-12T23:26:24.475Z,13.75
2019-05-12T23:28:55.598Z,13.74
2019-05-12T23:31:30.229Z,13.79
2019-05-12T23:33:59.254Z,13.88
2019-05-12T23:36:36.580Z,13.76
2019-05-12T23:39:04.778Z,13.71
2019-05-12T23:41:35.299Z,13.70
2019-05-12T23:44:06.363Z,13.67
2019-05-12T23:46:37.316Z,13.68
2019-05-12T23:49:08.178Z,13.67
2019-05-12T23:51:39.234Z,13.71
2019-05-12T23:54:10.072Z,13.78
2019-05-12T23:56:41.150Z,13.77
2019-05-12T23:59:13.565Z,13.79
